sensor_id;sensor_type;location;lat;lon;timestamp;P1;durP1;ratioP1;P2;durP2;ratioP2
52274;SDS011;38228;50.940;4.024;2022-11-02T00:00:44;7.18;;;1.60;;
52274;SDS011;38228;50.940;4.024;2022-11-02T00:03:10;14.00;;;1.70;;
52274;SDS011;38228;50.940;4.024;2022-11-02T00:05:36;7.95;;;1.25;;
52274;SDS011;38228;50.940;4.024;2022-11-02T00:08:02;9.25;;;1.08;;
52274;SDS011;38228;50.940;4.024;2022-11-02T00:10:28;10.00;;;1.55;;
52274;SDS011;38228;50.940;4.024;2022-11-02T00:12:56;11.57;;;1.50;;
52274;SDS011;38228;50.940;4.024;2022-11-02T00:15:23;11.43;;;1.80;;
52274;SDS011;38228;50.940;4.024;2022-11-02T00:17:52;7.70;;;1.40;;
52274;SDS011;38228;50.940;4.024;2022-11-02T00:20:20;9.23;;;1.50;;
52274;SDS011;38228;50.940;4.024;2022-11-02T00:22:46;10.93;;;1.98;;
52274;SDS011;38228;50.940;4.024;2022-11-02T00:25:14;6.88;;;1.33;;
52274;SDS011;38228;50.940;4.024;2022-11-02T00:27:43;9.32;;;1.60;;
52274;SDS011;38228;50.940;4.024;2022-11-02T00:30:09;9.63;;;1.42;;
52274;SDS011;38228;50.940;4.024;2022-11-02T00:32:35;6.55;;;1.23;;
52274;SDS011;38228;50.940;4.024;2022-11-02T00:35:00;9.90;;;1.40;;
52274;SDS011;38228;50.940;4.024;2022-11-02T00:37:26;11.10;;;1.65;;
52274;SDS011;38228;50.940;4.024;2022-11-02T00:39:52;7.50;;;1.33;;
52274;SDS011;38228;50.940;4.024;2022-11-02T00:42:17;6.30;;;1.10;;
52274;SDS011;38228;50.940;4.024;2022-11-02T00:44:43;9.57;;;2.03;;
52274;SDS011;38228;50.940;4.024;2022-11-02T00:47:08;8.50;;;1.38;;
52274;SDS011;38228;50.940;4.024;2022-11-02T00:49:35;9.27;;;1.33;;
52274;SDS011;38228;50.940;4.024;2022-11-02T00:52:01;8.80;;;1.52;;
52274;SDS011;38228;50.940;4.024;2022-11-02T00:54:27;9.95;;;1.60;;
52274;SDS011;38228;50.940;4.024;2022-11-02T00:56:53;11.52;;;1.70;;
52274;SDS011;38228;50.940;4.024;2022-11-02T00:59:19;9.05;;;1.73;;
52274;SDS011;38228;50.940;4.024;2022-11-02T01:01:44;9.50;;;1.55;;
52274;SDS011;38228;50.940;4.024;2022-11-02T01:04:15;6.60;;;1.40;;
52274;SDS011;38228;50.940;4.024;2022-11-02T01:06:44;11.40;;;1.95;;
52274;SDS011;38228;50.940;4.024;2022-11-02T01:09:10;10.07;;;2.03;;
52274;SDS011;38228;50.940;4.024;2022-11-02T01:11:38;11.50;;;2.00;;
52274;SDS011;38228;50.940;4.024;2022-11-02T01:14:05;9.48;;;1.73;;
52274;SDS011;38228;50.940;4.024;2022-11-02T01:16:30;16.92;;;2.25;;
52274;SDS011;38228;50.940;4.024;2022-11-02T01:18:56;13.13;;;2.25;;
52274;SDS011;38228;50.940;4.024;2022-11-02T01:21:22;11.13;;;1.75;;
52274;SDS011;38228;50.940;4.024;2022-11-02T01:23:48;13.30;;;2.35;;
52274;SDS011;38228;50.940;4.024;2022-11-02T01:26:14;11.88;;;1.83;;
52274;SDS011;38228;50.940;4.024;2022-11-02T01:28:40;11.50;;;1.45;;
52274;SDS011;38228;50.940;4.024;2022-11-02T01:31:07;13.77;;;2.28;;
52274;SDS011;38228;50.940;4.024;2022-11-02T01:33:33;13.25;;;1.77;;
52274;SDS011;38228;50.940;4.024;2022-11-02T01:36:01;11.15;;;1.67;;
52274;SDS011;38228;50.940;4.024;2022-11-02T01:38:28;9.05;;;1.90;;
52274;SDS011;38228;50.940;4.024;2022-11-02T01:40:55;13.68;;;2.30;;
52274;SDS011;38228;50.940;4.024;2022-11-02T01:45:57;13.37;;;2.43;;
52274;SDS011;38228;50.940;4.024;2022-11-02T01:48:34;14.65;;;2.03;;
52274;SDS011;38228;50.940;4.024;2022-11-02T01:51:04;15.80;;;2.53;;
52274;SDS011;38228;50.940;4.024;2022-11-02T01:53:34;11.48;;;1.80;;
52274;SDS011;38228;50.940;4.024;2022-11-02T01:56:01;19.95;;;2.60;;
52274;SDS011;38228;50.940;4.024;2022-11-02T01:58:28;15.25;;;2.63;;
52274;SDS011;38228;50.940;4.024;2022-11-02T02:00:55;14.98;;;2.40;;
52274;SDS011;38228;50.940;4.024;2022-11-02T02:03:21;12.23;;;2.58;;
52274;SDS011;38228;50.940;4.024;2022-11-02T02:05:48;17.23;;;2.50;;
52274;SDS011;38228;50.940;4.024;2022-11-02T02:08:35;18.02;;;2.67;;
52274;SDS011;38228;50.940;4.024;2022-11-02T02:13:51;14.43;;;1.98;;
52274;SDS011;38228;50.940;4.024;2022-11-02T02:16:48;19.55;;;2.45;;
52274;SDS011;38228;50.940;4.024;2022-11-02T02:19:15;17.48;;;2.20;;
52274;SDS011;38228;50.940;4.024;2022-11-02T02:30:23;16.63;;;2.65;;
52274;SDS011;38228;50.940;4.024;2022-11-02T02:32:53;13.73;;;2.75;;
52274;SDS011;38228;50.940;4.024;2022-11-02T02:35:36;14.32;;;2.47;;
52274;SDS011;38228;50.940;4.024;2022-11-02T02:38:05;13.45;;;2.40;;
52274;SDS011;38228;50.940;4.024;2022-11-02T02:40:36;20.00;;;2.17;;
52274;SDS011;38228;50.940;4.024;2022-11-02T02:43:09;15.30;;;2.25;;
52274;SDS011;38228;50.940;4.024;2022-11-02T02:45:46;14.38;;;2.63;;
52274;SDS011;38228;50.940;4.024;2022-11-02T02:48:19;11.32;;;1.77;;
52274;SDS011;38228;50.940;4.024;2022-11-02T02:53:14;14.18;;;2.47;;
52274;SDS011;38228;50.940;4.024;2022-11-02T02:55:44;11.45;;;2.42;;
52274;SDS011;38228;50.940;4.024;2022-11-02T02:58:58;12.95;;;2.72;;
52274;SDS011;38228;50.940;4.024;2022-11-02T03:01:27;14.32;;;2.83;;
52274;SDS011;38228;50.940;4.024;2022-11-02T03:03:53;20.40;;;2.60;;
52274;SDS011;38228;50.940;4.024;2022-11-02T03:06:30;18.15;;;2.58;;
52274;SDS011;38228;50.940;4.024;2022-11-02T03:11:38;16.67;;;2.58;;
52274;SDS011;38228;50.940;4.024;2022-11-02T03:14:23;13.32;;;2.00;;
52274;SDS011;38228;50.940;4.024;2022-11-02T03:19:41;17.25;;;2.90;;
52274;SDS011;38228;50.940;4.024;2022-11-02T03:22:18;20.63;;;3.10;;
52274;SDS011;38228;50.940;4.024;2022-11-02T03:24:54;14.45;;;2.55;;
52274;SDS011;38228;50.940;4.024;2022-11-02T03:30:44;18.15;;;2.65;;
52274;SDS011;38228;50.940;4.024;2022-11-02T03:33:30;24.20;;;3.28;;
52274;SDS011;38228;50.940;4.024;2022-11-02T03:36:18;19.67;;;2.95;;
52274;SDS011;38228;50.940;4.024;2022-11-02T03:38:52;16.58;;;2.47;;
52274;SDS011;38228;50.940;4.024;2022-11-02T03:41:24;12.30;;;2.60;;
52274;SDS011;38228;50.940;4.024;2022-11-02T03:43:52;12.75;;;2.30;;
52274;SDS011;38228;50.940;4.024;2022-11-02T03:46:23;15.43;;;1.92;;
52274;SDS011;38228;50.940;4.024;2022-11-02T03:48:50;15.32;;;2.67;;
52274;SDS011;38228;50.940;4.024;2022-11-02T03:51:19;14.15;;;2.70;;
52274;SDS011;38228;50.940;4.024;2022-11-02T03:56:44;22.13;;;3.15;;
52274;SDS011;38228;50.940;4.024;2022-11-02T03:59:15;19.92;;;2.75;;
52274;SDS011;38228;50.940;4.024;2022-11-02T04:01:42;11.02;;;2.05;;
52274;SDS011;38228;50.940;4.024;2022-11-02T04:04:13;20.73;;;2.70;;
52274;SDS011;38228;50.940;4.024;2022-11-02T04:06:39;15.93;;;2.55;;
52274;SDS011;38228;50.940;4.024;2022-11-02T04:09:07;15.77;;;2.60;;
52274;SDS011;38228;50.940;4.024;2022-11-02T04:11:33;16.08;;;2.33;;
52274;SDS011;38228;50.940;4.024;2022-11-02T04:14:18;17.02;;;2.75;;
52274;SDS011;38228;50.940;4.024;2022-11-02T04:17:02;16.48;;;2.67;;
52274;SDS011;38228;50.940;4.024;2022-11-02T04:19:47;20.38;;;2.45;;
52274;SDS011;38228;50.940;4.024;2022-11-02T04:22:12;18.58;;;2.63;;
52274;SDS011;38228;50.940;4.024;2022-11-02T04:24:57;15.15;;;2.85;;
52274;SDS011;38228;50.940;4.024;2022-11-02T04:27:42;20.25;;;3.28;;
52274;SDS011;38228;50.940;4.024;2022-11-02T04:30:10;28.13;;;3.20;;
52274;SDS011;38228;50.940;4.024;2022-11-02T04:32:39;14.35;;;2.10;;
52274;SDS011;38228;50.940;4.024;2022-11-02T04:35:25;15.95;;;2.97;;
52274;SDS011;38228;50.940;4.024;2022-11-02T04:37:51;19.02;;;2.42;;
52274;SDS011;38228;50.940;4.024;2022-11-02T04:40:35;19.92;;;2.58;;
52274;SDS011;38228;50.940;4.024;2022-11-02T04:43:01;17.65;;;2.83;;
52274;SDS011;38228;50.940;4.024;2022-11-02T04:45:26;18.60;;;2.00;;
52274;SDS011;38228;50.940;4.024;2022-11-02T04:47:52;21.42;;;2.55;;
52274;SDS011;38228;50.940;4.024;2022-11-02T04:50:23;21.75;;;2.65;;
52274;SDS011;38228;50.940;4.024;2022-11-02T04:52:53;17.60;;;2.50;;
52274;SDS011;38228;50.940;4.024;2022-11-02T04:55:23;15.70;;;2.17;;
52274;SDS011;38228;50.940;4.024;2022-11-02T04:57:49;20.15;;;2.50;;
52274;SDS011;38228;50.940;4.024;2022-11-02T05:00:15;17.17;;;2.72;;
52274;SDS011;38228;50.940;4.024;2022-11-02T05:02:41;16.73;;;2.47;;
52274;SDS011;38228;50.940;4.024;2022-11-02T05:05:07;13.25;;;2.03;;
52274;SDS011;38228;50.940;4.024;2022-11-02T05:07:32;16.80;;;2.53;;
52274;SDS011;38228;50.940;4.024;2022-11-02T05:09:58;18.27;;;2.17;;
52274;SDS011;38228;50.940;4.024;2022-11-02T05:12:24;15.68;;;2.13;;
52274;SDS011;38228;50.940;4.024;2022-11-02T05:14:50;15.60;;;2.10;;
52274;SDS011;38228;50.940;4.024;2022-11-02T05:17:15;19.90;;;2.20;;
52274;SDS011;38228;50.940;4.024;2022-11-02T05:19:41;15.13;;;2.60;;
52274;SDS011;38228;50.940;4.024;2022-11-02T05:22:07;15.20;;;2.35;;
52274;SDS011;38228;50.940;4.024;2022-11-02T05:24:32;15.00;;;2.28;;
52274;SDS011;38228;50.940;4.024;2022-11-02T05:26:58;13.88;;;2.10;;
52274;SDS011;38228;50.940;4.024;2022-11-02T05:29:27;19.20;;;2.65;;
52274;SDS011;38228;50.940;4.024;2022-11-02T05:31:52;22.85;;;3.00;;
52274;SDS011;38228;50.940;4.024;2022-11-02T05:34:18;14.10;;;2.65;;
52274;SDS011;38228;50.940;4.024;2022-11-02T05:36:44;15.55;;;2.72;;
52274;SDS011;38228;50.940;4.024;2022-11-02T05:39:12;19.55;;;2.42;;
52274;SDS011;38228;50.940;4.024;2022-11-02T05:41:37;22.02;;;2.78;;
52274;SDS011;38228;50.940;4.024;2022-11-02T05:44:03;14.55;;;2.72;;
52274;SDS011;38228;50.940;4.024;2022-11-02T05:46:29;19.10;;;2.42;;
52274;SDS011;38228;50.940;4.024;2022-11-02T05:48:54;21.77;;;3.20;;
52274;SDS011;38228;50.940;4.024;2022-11-02T05:51:20;19.88;;;2.78;;
52274;SDS011;38228;50.940;4.024;2022-11-02T05:53:46;20.60;;;2.78;;
52274;SDS011;38228;50.940;4.024;2022-11-02T05:56:11;14.27;;;1.80;;
52274;SDS011;38228;50.940;4.024;2022-11-02T05:58:38;21.95;;;3.38;;
52274;SDS011;38228;50.940;4.024;2022-11-02T06:01:05;22.60;;;2.97;;
52274;SDS011;38228;50.940;4.024;2022-11-02T06:03:31;20.00;;;3.17;;
52274;SDS011;38228;50.940;4.024;2022-11-02T06:05:58;20.27;;;3.10;;
52274;SDS011;38228;50.940;4.024;2022-11-02T06:08:25;25.38;;;3.67;;
52274;SDS011;38228;50.940;4.024;2022-11-02T06:10:50;26.98;;;3.85;;
52274;SDS011;38228;50.940;4.024;2022-11-02T06:13:16;24.02;;;3.33;;
52274;SDS011;38228;50.940;4.024;2022-11-02T06:15:42;17.42;;;3.10;;
52274;SDS011;38228;50.940;4.024;2022-11-02T06:18:07;15.25;;;3.08;;
52274;SDS011;38228;50.940;4.024;2022-11-02T06:20:33;23.15;;;3.45;;
52274;SDS011;38228;50.940;4.024;2022-11-02T06:22:59;22.10;;;3.40;;
52274;SDS011;38228;50.940;4.024;2022-11-02T06:25:24;19.77;;;3.38;;
52274;SDS011;38228;50.940;4.024;2022-11-02T06:27:54;22.58;;;3.17;;
52274;SDS011;38228;50.940;4.024;2022-11-02T06:30:24;23.10;;;3.85;;
52274;SDS011;38228;50.940;4.024;2022-11-02T06:32:50;16.10;;;2.80;;
52274;SDS011;38228;50.940;4.024;2022-11-02T06:35:18;23.77;;;3.15;;
52274;SDS011;38228;50.940;4.024;2022-11-02T06:37:45;17.52;;;3.00;;
52274;SDS011;38228;50.940;4.024;2022-11-02T06:40:11;25.10;;;3.63;;
52274;SDS011;38228;50.940;4.024;2022-11-02T06:42:38;27.80;;;4.10;;
52274;SDS011;38228;50.940;4.024;2022-11-02T06:45:04;25.08;;;3.63;;
52274;SDS011;38228;50.940;4.024;2022-11-02T06:47:31;20.52;;;2.97;;
52274;SDS011;38228;50.940;4.024;2022-11-02T06:49:58;24.20;;;4.00;;
52274;SDS011;38228;50.940;4.024;2022-11-02T06:52:24;22.70;;;3.25;;
52274;SDS011;38228;50.940;4.024;2022-11-02T06:54:53;25.95;;;3.97;;
52274;SDS011;38228;50.940;4.024;2022-11-02T06:57:19;21.63;;;3.15;;
52274;SDS011;38228;50.940;4.024;2022-11-02T06:59:45;25.58;;;3.85;;
52274;SDS011;38228;50.940;4.024;2022-11-02T07:02:11;28.92;;;3.92;;
52274;SDS011;38228;50.940;4.024;2022-11-02T07:04:37;25.13;;;3.60;;
52274;SDS011;38228;50.940;4.024;2022-11-02T07:07:03;21.35;;;3.28;;
52274;SDS011;38228;50.940;4.024;2022-11-02T07:09:28;22.50;;;3.38;;
52274;SDS011;38228;50.940;4.024;2022-11-02T07:11:54;25.92;;;4.53;;
52274;SDS011;38228;50.940;4.024;2022-11-02T07:14:19;22.23;;;3.60;;
52274;SDS011;38228;50.940;4.024;2022-11-02T07:16:45;27.58;;;4.25;;
52274;SDS011;38228;50.940;4.024;2022-11-02T07:19:11;21.67;;;3.38;;
52274;SDS011;38228;50.940;4.024;2022-11-02T07:21:36;27.58;;;3.95;;
52274;SDS011;38228;50.940;4.024;2022-11-02T07:24:02;28.25;;;4.05;;
52274;SDS011;38228;50.940;4.024;2022-11-02T07:26:28;29.02;;;4.35;;
52274;SDS011;38228;50.940;4.024;2022-11-02T07:28:54;29.50;;;3.95;;
52274;SDS011;38228;50.940;4.024;2022-11-02T07:31:19;28.38;;;3.88;;
52274;SDS011;38228;50.940;4.024;2022-11-02T07:33:45;34.70;;;4.50;;
52274;SDS011;38228;50.940;4.024;2022-11-02T07:36:11;27.63;;;3.35;;
52274;SDS011;38228;50.940;4.024;2022-11-02T07:38:37;32.50;;;3.90;;
52274;SDS011;38228;50.940;4.024;2022-11-02T07:41:02;23.90;;;3.42;;
52274;SDS011;38228;50.940;4.024;2022-11-02T07:43:28;23.33;;;3.83;;
52274;SDS011;38228;50.940;4.024;2022-11-02T07:45:54;29.35;;;4.28;;
52274;SDS011;38228;50.940;4.024;2022-11-02T07:48:20;30.95;;;3.63;;
52274;SDS011;38228;50.940;4.024;2022-11-02T07:50:46;28.65;;;3.80;;
52274;SDS011;38228;50.940;4.024;2022-11-02T07:53:11;25.92;;;3.67;;
52274;SDS011;38228;50.940;4.024;2022-11-02T07:55:37;25.88;;;3.53;;
52274;SDS011;38228;50.940;4.024;2022-11-02T07:58:04;26.02;;;3.30;;
52274;SDS011;38228;50.940;4.024;2022-11-02T08:00:35;28.40;;;3.97;;
52274;SDS011;38228;50.940;4.024;2022-11-02T08:03:04;22.05;;;3.80;;
52274;SDS011;38228;50.940;4.024;2022-11-02T08:05:32;26.45;;;3.83;;
52274;SDS011;38228;50.940;4.024;2022-11-02T08:08:01;27.02;;;3.78;;
52274;SDS011;38228;50.940;4.024;2022-11-02T08:10:32;27.95;;;3.88;;
52274;SDS011;38228;50.940;4.024;2022-11-02T08:12:59;23.48;;;4.25;;
52274;SDS011;38228;50.940;4.024;2022-11-02T08:15:24;20.52;;;3.42;;
52274;SDS011;38228;50.940;4.024;2022-11-02T08:18:03;29.58;;;3.63;;
52274;SDS011;38228;50.940;4.024;2022-11-02T08:20:31;22.55;;;3.60;;
52274;SDS011;38228;50.940;4.024;2022-11-02T08:22:58;27.90;;;4.00;;
52274;SDS011;38228;50.940;4.024;2022-11-02T08:25:24;25.17;;;4.78;;
52274;SDS011;38228;50.940;4.024;2022-11-02T08:27:50;27.98;;;3.45;;
52274;SDS011;38228;50.940;4.024;2022-11-02T08:30:19;21.77;;;3.97;;
52274;SDS011;38228;50.940;4.024;2022-11-02T08:32:45;22.13;;;3.55;;
52274;SDS011;38228;50.940;4.024;2022-11-02T08:35:10;19.92;;;3.58;;
52274;SDS011;38228;50.940;4.024;2022-11-02T08:37:36;26.58;;;4.32;;
52274;SDS011;38228;50.940;4.024;2022-11-02T08:40:02;20.30;;;3.70;;
52274;SDS011;38228;50.940;4.024;2022-11-02T08:42:27;28.52;;;4.20;;
52274;SDS011;38228;50.940;4.024;2022-11-02T08:44:53;28.52;;;3.65;;
52274;SDS011;38228;50.940;4.024;2022-11-02T08:47:19;27.38;;;4.22;;
52274;SDS011;38228;50.940;4.024;2022-11-02T08:49:45;22.98;;;3.67;;
52274;SDS011;38228;50.940;4.024;2022-11-02T08:52:11;32.00;;;4.50;;
52274;SDS011;38228;50.940;4.024;2022-11-02T08:54:37;27.52;;;4.00;;
52274;SDS011;38228;50.940;4.024;2022-11-02T08:57:02;29.90;;;4.22;;
52274;SDS011;38228;50.940;4.024;2022-11-02T08:59:28;26.20;;;3.90;;
52274;SDS011;38228;50.940;4.024;2022-11-02T09:01:53;22.98;;;3.83;;
52274;SDS011;38228;50.940;4.024;2022-11-02T09:04:19;22.70;;;4.68;;
52274;SDS011;38228;50.940;4.024;2022-11-02T09:06:45;27.42;;;4.85;;
52274;SDS011;38228;50.940;4.024;2022-11-02T09:09:10;31.63;;;4.75;;
52274;SDS011;38228;50.940;4.024;2022-11-02T09:11:36;27.35;;;4.20;;
52274;SDS011;38228;50.940;4.024;2022-11-02T09:14:02;27.83;;;4.72;;
52274;SDS011;38228;50.940;4.024;2022-11-02T09:16:27;28.20;;;4.57;;
52274;SDS011;38228;50.940;4.024;2022-11-02T09:18:53;25.55;;;4.55;;
52274;SDS011;38228;50.940;4.024;2022-11-02T09:21:19;26.65;;;4.88;;
52274;SDS011;38228;50.940;4.024;2022-11-02T09:23:45;26.63;;;4.50;;
52274;SDS011;38228;50.940;4.024;2022-11-02T09:26:12;33.38;;;4.85;;
52274;SDS011;38228;50.940;4.024;2022-11-02T09:28:38;25.40;;;4.43;;
52274;SDS011;38228;50.940;4.024;2022-11-02T09:31:04;23.52;;;3.63;;
52274;SDS011;38228;50.940;4.024;2022-11-02T09:33:30;22.52;;;3.80;;
52274;SDS011;38228;50.940;4.024;2022-11-02T09:35:59;20.25;;;3.65;;
52274;SDS011;38228;50.940;4.024;2022-11-02T09:38:26;23.50;;;3.67;;
52274;SDS011;38228;50.940;4.024;2022-11-02T09:40:54;31.98;;;3.92;;
52274;SDS011;38228;50.940;4.024;2022-11-02T09:43:30;23.08;;;4.15;;
52274;SDS011;38228;50.940;4.024;2022-11-02T09:46:11;24.00;;;3.70;;
52274;SDS011;38228;50.940;4.024;2022-11-02T09:48:47;23.70;;;4.38;;
52274;SDS011;38228;50.940;4.024;2022-11-02T09:51:19;23.15;;;4.13;;
52274;SDS011;38228;50.940;4.024;2022-11-02T09:56:28;25.98;;;5.13;;
52274;SDS011;38228;50.940;4.024;2022-11-02T09:58:59;31.63;;;4.65;;
52274;SDS011;38228;50.940;4.024;2022-11-02T10:09:54;24.33;;;4.50;;
52274;SDS011;38228;50.940;4.024;2022-11-02T10:12:35;25.75;;;4.25;;
52274;SDS011;38228;50.940;4.024;2022-11-02T10:15:12;31.95;;;4.53;;
52274;SDS011;38228;50.940;4.024;2022-11-02T10:17:46;27.75;;;3.50;;
52274;SDS011;38228;50.940;4.024;2022-11-02T10:20:18;26.20;;;3.80;;
52274;SDS011;38228;50.940;4.024;2022-11-02T10:22:50;28.05;;;3.90;;
52274;SDS011;38228;50.940;4.024;2022-11-02T10:25:18;21.23;;;3.38;;
52274;SDS011;38228;50.940;4.024;2022-11-02T10:27:45;22.10;;;3.97;;
52274;SDS011;38228;50.940;4.024;2022-11-02T10:30:18;27.42;;;3.72;;
52274;SDS011;38228;50.940;4.024;2022-11-02T10:32:46;22.00;;;3.10;;
52274;SDS011;38228;50.940;4.024;2022-11-02T10:35:18;20.00;;;3.85;;
52274;SDS011;38228;50.940;4.024;2022-11-02T10:46:20;22.42;;;4.25;;
52274;SDS011;38228;50.940;4.024;2022-11-02T10:49:08;21.33;;;3.10;;
52274;SDS011;38228;50.940;4.024;2022-11-02T10:51:37;22.55;;;3.22;;
52274;SDS011;38228;50.940;4.024;2022-11-02T10:54:10;27.55;;;3.85;;
52274;SDS011;38228;50.940;4.024;2022-11-02T10:56:40;25.92;;;3.90;;
52274;SDS011;38228;50.940;4.024;2022-11-02T11:01:47;26.63;;;3.75;;
52274;SDS011;38228;50.940;4.024;2022-11-02T11:04:38;20.50;;;3.70;;
52274;SDS011;38228;50.940;4.024;2022-11-02T11:07:05;19.33;;;3.40;;
52274;SDS011;38228;50.940;4.024;2022-11-02T11:12:16;26.75;;;3.80;;
52274;SDS011;38228;50.940;4.024;2022-11-02T11:15:06;24.58;;;3.55;;
52274;SDS011;38228;50.940;4.024;2022-11-02T11:17:43;26.50;;;4.22;;
52274;SDS011;38228;50.940;4.024;2022-11-02T11:20:31;22.73;;;3.10;;
52274;SDS011;38228;50.940;4.024;2022-11-02T11:23:07;26.55;;;6.80;;
52274;SDS011;38228;50.940;4.024;2022-11-02T11:25:33;27.95;;;4.05;;
52274;SDS011;38228;50.940;4.024;2022-11-02T11:27:59;23.63;;;3.65;;
52274;SDS011;38228;50.940;4.024;2022-11-02T11:30:32;25.65;;;3.15;;
52274;SDS011;38228;50.940;4.024;2022-11-02T11:33:02;28.20;;;4.13;;
52274;SDS011;38228;50.940;4.024;2022-11-02T11:35:38;18.45;;;3.50;;
52274;SDS011;38228;50.940;4.024;2022-11-02T11:38:06;26.73;;;3.63;;
52274;SDS011;38228;50.940;4.024;2022-11-02T11:40:42;16.25;;;2.90;;
52274;SDS011;38228;50.940;4.024;2022-11-02T11:43:09;16.08;;;3.05;;
52274;SDS011;38228;50.940;4.024;2022-11-02T11:45:37;24.52;;;3.80;;
52274;SDS011;38228;50.940;4.024;2022-11-02T11:48:05;24.50;;;3.50;;
52274;SDS011;38228;50.940;4.024;2022-11-02T11:50:31;17.98;;;3.15;;
52274;SDS011;38228;50.940;4.024;2022-11-02T11:55:35;22.05;;;3.20;;
52274;SDS011;38228;50.940;4.024;2022-11-02T11:58:19;23.42;;;3.17;;
52274;SDS011;38228;50.940;4.024;2022-11-02T12:03:48;21.23;;;2.77;;
52274;SDS011;38228;50.940;4.024;2022-11-02T12:23:01;18.02;;;2.85;;
52274;SDS011;38228;50.940;4.024;2022-11-02T12:25:51;17.65;;;2.60;;
52274;SDS011;38228;50.940;4.024;2022-11-02T12:37:17;17.65;;;2.70;;
52274;SDS011;38228;50.940;4.024;2022-11-02T12:42:36;16.45;;;2.45;;
52274;SDS011;38228;50.940;4.024;2022-11-02T12:45:22;19.67;;;2.97;;
52274;SDS011;38228;50.940;4.024;2022-11-02T12:48:02;20.45;;;2.53;;
52274;SDS011;38228;50.940;4.024;2022-11-02T12:50:32;17.52;;;2.78;;
52274;SDS011;38228;50.940;4.024;2022-11-02T12:55:39;15.68;;;2.80;;
52274;SDS011;38228;50.940;4.024;2022-11-02T12:58:15;15.57;;;3.53;;
52274;SDS011;38228;50.940;4.024;2022-11-02T13:00:46;20.58;;;3.28;;
52274;SDS011;38228;50.940;4.024;2022-11-02T13:05:56;14.98;;;2.70;;
52274;SDS011;38228;50.940;4.024;2022-11-02T13:08:38;18.38;;;2.88;;
52274;SDS011;38228;50.940;4.024;2022-11-02T13:13:53;14.48;;;3.03;;
52274;SDS011;38228;50.940;4.024;2022-11-02T13:16:29;25.55;;;3.80;;
52274;SDS011;38228;50.940;4.024;2022-11-02T13:19:18;15.10;;;3.00;;
52274;SDS011;38228;50.940;4.024;2022-11-02T13:21:50;26.13;;;3.42;;
52274;SDS011;38228;50.940;4.024;2022-11-02T13:24:21;14.80;;;2.72;;
52274;SDS011;38228;50.940;4.024;2022-11-02T13:26:50;18.42;;;3.10;;
52274;SDS011;38228;50.940;4.024;2022-11-02T13:29:20;12.27;;;2.58;;
52274;SDS011;38228;50.940;4.024;2022-11-02T13:34:52;19.15;;;3.05;;
52274;SDS011;38228;50.940;4.024;2022-11-02T13:37:20;12.25;;;2.33;;
52274;SDS011;38228;50.940;4.024;2022-11-02T13:39:56;17.77;;;2.70;;
52274;SDS011;38228;50.940;4.024;2022-11-02T13:43:00;15.52;;;2.45;;
52274;SDS011;38228;50.940;4.024;2022-11-02T13:45:33;13.93;;;2.60;;
52274;SDS011;38228;50.940;4.024;2022-11-02T13:51:02;19.23;;;3.03;;
52274;SDS011;38228;50.940;4.024;2022-11-02T13:53:38;11.60;;;2.35;;
52274;SDS011;38228;50.940;4.024;2022-11-02T13:56:12;14.80;;;2.55;;
52274;SDS011;38228;50.940;4.024;2022-11-02T13:58:47;18.65;;;2.65;;
52274;SDS011;38228;50.940;4.024;2022-11-02T14:01:20;13.27;;;2.47;;
52274;SDS011;38228;50.940;4.024;2022-11-02T14:06:16;14.52;;;2.70;;
52274;SDS011;38228;50.940;4.024;2022-11-02T14:11:34;16.27;;;2.38;;
52274;SDS011;38228;50.940;4.024;2022-11-02T14:26:59;9.50;;;1.88;;
52274;SDS011;38228;50.940;4.024;2022-11-02T14:48:17;13.10;;;2.42;;
52274;SDS011;38228;50.940;4.024;2022-11-02T14:50:55;15.63;;;2.45;;
52274;SDS011;38228;50.940;4.024;2022-11-02T14:53:25;13.40;;;2.42;;
52274;SDS011;38228;50.940;4.024;2022-11-02T14:55:54;13.85;;;2.15;;
52274;SDS011;38228;50.940;4.024;2022-11-02T14:58:21;12.30;;;1.98;;
52274;SDS011;38228;50.940;4.024;2022-11-02T15:00:53;12.05;;;1.92;;
52274;SDS011;38228;50.940;4.024;2022-11-02T15:05:47;13.15;;;2.08;;
52274;SDS011;38228;50.940;4.024;2022-11-02T15:08:28;12.52;;;2.42;;
52274;SDS011;38228;50.940;4.024;2022-11-02T15:10:57;13.80;;;2.08;;
52274;SDS011;38228;50.940;4.024;2022-11-02T15:13:30;12.63;;;2.42;;
52274;SDS011;38228;50.940;4.024;2022-11-02T15:23:46;12.85;;;2.33;;
52274;SDS011;38228;50.940;4.024;2022-11-02T15:26:22;10.65;;;2.40;;
52274;SDS011;38228;50.940;4.024;2022-11-02T15:29:15;17.65;;;2.55;;
52274;SDS011;38228;50.940;4.024;2022-11-02T15:32:15;12.25;;;2.17;;
52274;SDS011;38228;50.940;4.024;2022-11-02T15:34:46;15.63;;;2.25;;
52274;SDS011;38228;50.940;4.024;2022-11-02T15:37:18;14.05;;;2.15;;
52274;SDS011;38228;50.940;4.024;2022-11-02T15:40:05;13.60;;;2.03;;
52274;SDS011;38228;50.940;4.024;2022-11-02T15:42:48;16.55;;;2.60;;
52274;SDS011;38228;50.940;4.024;2022-11-02T15:46:01;9.63;;;2.10;;
52274;SDS011;38228;50.940;4.024;2022-11-02T15:51:24;13.48;;;2.42;;
52274;SDS011;38228;50.940;4.024;2022-11-02T15:59:47;13.45;;;2.38;;
52274;SDS011;38228;50.940;4.024;2022-11-02T16:02:34;12.45;;;2.45;;
52274;SDS011;38228;50.940;4.024;2022-11-02T16:05:03;15.95;;;2.38;;
52274;SDS011;38228;50.940;4.024;2022-11-02T16:07:32;15.88;;;4.20;;
52274;SDS011;38228;50.940;4.024;2022-11-02T16:13:10;10.63;;;2.20;;
52274;SDS011;38228;50.940;4.024;2022-11-02T16:15:47;16.17;;;2.35;;
52274;SDS011;38228;50.940;4.024;2022-11-02T16:18:23;17.30;;;2.85;;
52274;SDS011;38228;50.940;4.024;2022-11-02T16:20:50;15.52;;;3.20;;
52274;SDS011;38228;50.940;4.024;2022-11-02T16:23:23;18.63;;;2.67;;
52274;SDS011;38228;50.940;4.024;2022-11-02T16:25:51;13.52;;;2.42;;
52274;SDS011;38228;50.940;4.024;2022-11-02T16:28:22;12.95;;;2.90;;
52274;SDS011;38228;50.940;4.024;2022-11-02T16:33:43;17.05;;;2.83;;
52274;SDS011;38228;50.940;4.024;2022-11-02T16:36:19;17.48;;;3.22;;
52274;SDS011;38228;50.940;4.024;2022-11-02T16:41:19;15.30;;;2.53;;
52274;SDS011;38228;50.940;4.024;2022-11-02T16:43:46;18.17;;;2.70;;
52274;SDS011;38228;50.940;4.024;2022-11-02T16:46:14;11.93;;;2.35;;
52274;SDS011;38228;50.940;4.024;2022-11-02T16:48:59;16.10;;;2.65;;
52274;SDS011;38228;50.940;4.024;2022-11-02T16:51:39;14.45;;;2.13;;
52274;SDS011;38228;50.940;4.024;2022-11-02T16:54:28;14.00;;;2.63;;
52274;SDS011;38228;50.940;4.024;2022-11-02T16:57:11;12.07;;;2.50;;
52274;SDS011;38228;50.940;4.024;2022-11-02T17:00:26;21.10;;;2.63;;
52274;SDS011;38228;50.940;4.024;2022-11-02T17:02:42;15.68;;;3.13;;
52274;SDS011;38228;50.940;4.024;2022-11-02T17:08:03;12.68;;;2.63;;
52274;SDS011;38228;50.940;4.024;2022-11-02T17:10:34;11.02;;;2.28;;
52274;SDS011;38228;50.940;4.024;2022-11-02T17:13:02;14.40;;;2.42;;
52274;SDS011;38228;50.940;4.024;2022-11-02T17:15:32;11.57;;;2.72;;
52274;SDS011;38228;50.940;4.024;2022-11-02T17:18:23;15.23;;;2.40;;
52274;SDS011;38228;50.940;4.024;2022-11-02T17:20:47;12.68;;;2.63;;
52274;SDS011;38228;50.940;4.024;2022-11-02T17:23:34;15.88;;;3.15;;
52274;SDS011;38228;50.940;4.024;2022-11-02T17:28:49;11.23;;;2.90;;
52274;SDS011;38228;50.940;4.024;2022-11-02T17:31:23;22.13;;;3.08;;
52274;SDS011;38228;50.940;4.024;2022-11-02T17:33:53;12.23;;;2.30;;
52274;SDS011;38228;50.940;4.024;2022-11-02T17:36:20;16.20;;;2.90;;
52274;SDS011;38228;50.940;4.024;2022-11-02T17:38:46;15.00;;;2.85;;
52274;SDS011;38228;50.940;4.024;2022-11-02T17:41:14;12.90;;;3.00;;
52274;SDS011;38228;50.940;4.024;2022-11-02T17:44:00;15.02;;;2.75;;
52274;SDS011;38228;50.940;4.024;2022-11-02T17:46:27;19.27;;;2.60;;